Frankfort, ME

1:49 AM EST on November 24, 2014 (GMT -0500)
Mosquito Mountain | Change Station
CLOSE
Current Station
Personal Weather Station
Location: Frankfort, ME
Elevation: 204 ft
Nearby Weather Stations

Elev 204 ft 44.59 °N, 68.87 °W | Updated 9 minutes ago

Overcast
Overcast
43.3 °F
Feels Like 43 °F
N
2.2
Wind Variable Wind from SW

Today
High -- | Low -- °F
--% Chance of Precip.
Yesterday
High -- | Low -- °F
Precip. -- in
6:43 AM 4:00 PM
Waxing Crescent, 4% visible
Pressure 30.13 in
Visibility 10.0 miles
Clouds Few 4500 ft
Scattered Clouds 10000 ft
Mostly Cloudy 16000 ft
Windchill 43 °F
Dew Point 43 °F
Humidity 98%
Rainfall 0.00 in
Snow Depth Not available.
UV 0 out of 12
Pollen .10 out of 12
Air Quality Not available.
Flu Activity Not available.
METAR KBGR 240553Z 16004KT 10SM FEW045 SCT100 BKN160 04/03 A3012 RMK AO2 SLP201 T00440033 10044 20000 58007

More Conditions Fewer Conditions

Pressure 30.13 in
Visibility 10.0 miles
Clouds Few 4500 ft
Scattered Clouds 10000 ft
Mostly Cloudy 16000 ft
Windchill 43 °F
Dew Point 43 °F
Humidity 98%
Rainfall 0.00 in
Snow Depth Not available.
UV 0 out of 12
Pollen .10 out of 12
Air Quality Not available.
Flu Activity Not available.
METAR KBGR 240553Z 16004KT 10SM FEW045 SCT100 BKN160 04/03 A3012 RMK AO2 SLP201 T00440033 10044 20000 58007

More Conditions Fewer Conditions

10-Day Weather Forecast

Almanac

Astronomy

Nov. 24, 2014 Rise Set
Actual Time
Civil Twilight
Nautical Twilight
Astronomical Twilight
Moon
Length of Visible Light
Length of Day
Tomorrow will be .
, % of the Moon is Illuminated

Today's Extremes

State Highs State Lows

Community

WunderPhotos

Upload Photos

1,773,294 photos uploaded!

WunderBlogs® & News

Nearby

Air Quality

  Air Quality AQ Index Pollutant
Not available.

Snow Depth

Station Depth Elevation

Earthquake Activity

City Distance Mag. Time & Date
Minimum magnitude displayed is 2.5.

Coastal Water Temperatures

Place Temperature

Nearby Weather Stations